SBOSBO CGN / EDDK
Speedbird OnlineSpeedbird Online CGN / EDDK

Cologne Bonn Airport
02:46 11.3°C

Location Cologne, Germany
Latitude: 50.8658981323
Longitude: 7.1427397728
Local Time 02:46 on 26 May 2024
UTC +2 hours (Europe/Berlin)
Currency £1 equals EUR 1.17
METAR EDDK 260020Z AUTO 06003KT CAVOK 11/11 Q1017 NOSIG
TAF TAF EDDK 252300Z 2600/2706 VRB03KT CAVOK BECMG 2605/2609 16010KT PROB40 TEMPO 2616/2620 SHRA SCT040CB BECMG 2617/2620 16005KT BECMG 2621/2624 VRB03KT
Weather As Of 26 May 2024 02:46
Description Clear sky
Wind 6 km/h from North-East (60°)
Cloud Cover 0%
Precipitation Rain: none, Snow: none
Sunrise 05:28
Sunset 21:29
NOTAM 19 active NOTAM
Rotations During the last 90 days there were
132 flights from LHR
129 flights to LHR
Lounges The Lounge, Terminal 2
Web Airport Website | Wikipedia
Codes IATA: CGN
ICAO: EDDK
Altitude 92 Meter / 302 Feet
Distance 494 KM / 307 Miles
from London.
Runways
RunwayLength (m)Surface
062459Concrete
14L3815Asphalt
14R1863Asphalt
242459Concrete
32L1863Asphalt
32R3815Asphalt
Radio
TypeDescriptionFrequency
ATISATIS112.15
ATIS132.13
CLDCLNC DEL121.85
DIRDIR121.05
GNDGND121.725
INFOLANGEN INFO129.875
MISCAPRON121.95
POSTMIL136.25
RDRLANGEN RADAR118.75
TWRTWR124.975
Live ATC



Support Speedbird Online

© 2017-2024 Speedbird Online